Aérodrome :
LOGIN :

S'inscrire | Disclaimer

   EN    FR    IT 

 










Légende :    VFR   VFR Marginal   IFR   IFR Intensif   IFR Très Intensif
Visi : 
Plafond : 
>= 8 km
>= 3000ft
5 à 8 km
1000 à 3000 ft
1500m à 5 km
500 à 1000 ft
800 à 1500m
200 à 500 ft
< 800m
< 200 ft
Symboles :   Orages  Brouillard  Fortes neiges  Fortes précipitations  Vent > 20 kt
SIGMETs :   Divers  Orages  Givrage  Turbulence  Onde Orograph.  Cendres Volcan.






- Altitude de l'aérodrome : 650 ft
- Code IATA : ZJI


LSZL - Locarno

DERNIER METAR :
  • 210150Z AUTO VRB02KT 9999NDV NCD 04/M09 Q1021 RMK

METARs EXPIRÉS :
  • 210120Z AUTO 08003KT 360V150 9999NDV NCD 05/M09 Q1021 RMK
  • 210050Z AUTO VRB02KT 9999NDV NCD 03/M08 Q1021 RMK
  • 210020Z AUTO 08004KT 050V110 9999NDV NCD 06/M09 Q1021 RMK
  • 202350Z AUTO 10004KT 040V140 9999NDV NCD 05/M08 Q1021 RMK
  • 202320Z AUTO VRB02KT 9999NDV NCD 06/M09 Q1021 RMK

TAF TAF LSZL
Valide du 20 à 18h jusqu'au 21 à 03h UTC


201725Z 2018/2103 15008KT CAVOK
PROB40
TEMPO 2018/2103 15015G25KT



MET'MAP, la Météo Aéronautique d'un coup d'oeil ! - Copyright ORBIFLY Décembre 2007 - Disclaimer

ORBIFLY MET'MAP TEAM :

Programmation & Développement : Alexandra Zaïnal
Sur une idée originale de : Baudouin d'Aumeries
Assistance à la programmation : Marc-Olivier Méhu
Soutien technique & logistique : Manuel Goepfert

Contact : metmap@orbifly.com




SOURCES & CREDITS :

   NOAA